Time,TemperatureF,DewpointF,PressureIn,WindDirection,WindDirectionDegrees,WindSpeedMPH,WindSpeedGustMPH,Humidity,HourlyPrecipIn,Conditions,Clouds,dailyrainin,SoftwareType,DateUTC
2013-05-09 00:03:00,64.0,55.6,29.86,North,0,0.9,6.5,74,0.00,,---,0.00,VWS V13.01,2013-05-08 21:03:00,
2013-05-09 00:08:00,64.0,55.6,29.86,ENE,67,0.0,4.0,74,0.00,,---,0.00,VWS V13.01,2013-05-08 21:08:00,
2013-05-09 00:13:00,63.9,55.5,29.86,NNW,337,0.0,3.6,74,0.00,,---,0.00,VWS V13.01,2013-05-08 21:13:00,
2013-05-09 00:18:00,63.7,55.3,29.85,NNE,22,0.0,7.4,74,0.00,,---,0.00,VWS V13.01,2013-05-08 21:18:00,
2013-05-09 00:23:00,63.7,55.3,29.85,North,0,0.0,5.1,74,0.00,,---,0.00,VWS V13.01,2013-05-08 21:23:00,
2013-05-09 00:28:00,63.7,55.3,29.85,NNW,337,4.9,4.9,74,0.00,,---,0.00,VWS V13.01,2013-05-08 21:28:00,
2013-05-09 00:33:00,63.7,55.3,29.85,NNE,22,0.0,4.9,74,0.00,,---,0.00,VWS V13.01,2013-05-08 21:33:00,
2013-05-09 00:38:00,63.7,55.3,29.85,NE,45,0.0,2.2,74,0.00,,---,0.00,VWS V13.01,2013-05-08 21:38:00,
2013-05-09 00:43:00,63.7,55.3,29.85,ENE,67,0.0,3.1,74,0.00,,---,0.00,VWS V13.01,2013-05-08 21:43:00,
2013-05-09 00:48:00,63.7,55.3,29.85,NW,315,0.0,3.6,74,0.00,,---,0.00,VWS V13.01,2013-05-08 21:48:00,
2013-05-09 00:53:00,63.7,55.3,29.85,North,0,0.0,2.9,74,0.00,,---,0.00,VWS V13.01,2013-05-08 21:53:00,
2013-05-09 00:58:00,63.5,54.7,29.85,NNE,22,0.0,3.6,73,0.00,,---,0.00,VWS V13.01,2013-05-08 21:58:00,
2013-05-09 01:03:00,63.5,54.7,29.85,ENE,67,0.0,3.8,73,0.00,,---,0.00,VWS V13.01,2013-05-08 22:03:00,
2013-05-09 01:08:00,63.5,54.7,29.85,NNW,337,0.9,3.6,73,0.00,,---,0.00,VWS V13.01,2013-05-08 22:08:00,
2013-05-09 01:13:00,63.5,54.7,29.85,North,0,7.6,7.6,73,0.00,,---,0.00,VWS V13.01,2013-05-08 22:13:00,
2013-05-09 01:18:00,63.5,54.7,29.85,NNW,337,2.5,3.6,73,0.00,,---,0.00,VWS V13.01,2013-05-08 22:18:00,
2013-05-09 01:23:00,63.5,54.7,29.85,NW,315,2.5,5.1,73,0.00,,---,0.00,VWS V13.01,2013-05-08 22:23:00,
2013-05-09 01:28:00,63.5,54.7,29.85,North,0,3.8,3.8,73,0.00,,---,0.00,VWS V13.01,2013-05-08 22:28:00,
2013-05-09 01:33:00,63.3,54.5,29.85,ENE,67,0.0,3.8,73,0.00,,---,0.00,VWS V13.01,2013-05-08 22:33:00,
2013-05-09 01:38:00,63.3,54.5,29.85,ENE,67,0.0,2.0,73,0.00,,---,0.00,VWS V13.01,2013-05-08 22:38:00,
2013-05-09 01:43:00,63.3,54.5,29.85,NE,45,1.6,2.2,73,0.00,,---,0.00,VWS V13.01,2013-05-08 22:43:00,
2013-05-09 01:48:00,63.3,54.5,29.85,East,90,0.0,1.6,73,0.00,,---,0.00,VWS V13.01,2013-05-08 22:48:00,
2013-05-09 01:53:00,63.3,54.5,29.85,NW,315,0.0,3.6,73,0.00,,---,0.00,VWS V13.01,2013-05-08 22:53:00,
2013-05-09 01:58:00,63.3,54.5,29.85,NNE,22,1.1,3.1,73,0.00,,---,0.00,VWS V13.01,2013-05-08 22:58:00,
2013-05-09 02:03:00,63.3,54.5,29.84,NNE,22,2.7,2.7,73,0.00,,---,0.00,VWS V13.01,2013-05-08 23:03:00,
2013-05-09 02:08:00,63.3,54.5,29.84,NW,315,1.6,4.5,73,0.00,,---,0.00,VWS V13.01,2013-05-08 23:08:00,
2013-05-09 02:13:00,63.5,54.7,29.84,NE,45,0.0,3.6,73,0.00,,---,0.00,VWS V13.01,2013-05-08 23:13:00,
2013-05-09 02:19:00,63.3,54.5,29.84,North,0,0.0,1.6,73,0.00,,---,0.00,VWS V13.01,2013-05-08 23:19:00,
2013-05-09 02:24:00,63.3,54.5,29.84,NNE,22,1.6,4.9,73,0.00,,---,0.00,VWS V13.01,2013-05-08 23:24:00,
2013-05-09 02:29:00,63.3,54.5,29.84,NNE,22,0.9,5.4,73,0.00,,---,0.00,VWS V13.01,2013-05-08 23:29:00,
2013-05-09 02:34:00,63.3,54.5,29.84,East,90,0.0,2.2,73,0.00,,---,0.00,VWS V13.01,2013-05-08 23:34:00,
2013-05-09 02:39:00,63.3,54.5,29.83,NE,45,0.0,1.6,73,0.00,,---,0.00,VWS V13.01,2013-05-08 23:39:00,
2013-05-09 02:44:00,63.3,54.5,29.83,SE,135,0.0,3.1,73,0.00,,---,0.00,VWS V13.01,2013-05-08 23:44:00,
2013-05-09 02:49:00,63.5,54.7,29.83,NE,45,0.0,1.1,73,0.00,,---,0.00,VWS V13.01,2013-05-08 23:49:00,
2013-05-09 02:54:00,63.5,54.7,29.83,North,0,0.0,1.1,73,0.00,,---,0.00,VWS V13.01,2013-05-08 23:54:00,
2013-05-09 02:59:00,63.5,54.7,29.83,ENE,67,0.0,0.7,73,0.00,,---,0.00,VWS V13.01,2013-05-08 23:59:00,
2013-05-09 03:04:00,63.7,54.9,29.83,ENE,67,0.0,0.7,73,0.00,,---,0.00,VWS V13.01,2013-05-09 00:04:00,
2013-05-09 03:09:00,63.7,54.9,29.83,NNE,22,0.0,0.7,73,0.00,,---,0.00,VWS V13.01,2013-05-09 00:09:00,
2013-05-09 03:14:00,63.7,54.9,29.83,ESE,112,0.0,0.7,73,0.00,,---,0.00,VWS V13.01,2013-05-09 00:14:00,
2013-05-09 03:19:00,63.7,54.9,29.83,East,90,0.0,1.1,73,0.00,,---,0.00,VWS V13.01,2013-05-09 00:19:00,
2013-05-09 03:24:00,63.7,54.9,29.83,ESE,112,0.0,1.6,73,0.00,,---,0.00,VWS V13.01,2013-05-09 00:24:00,
2013-05-09 03:29:00,63.7,54.9,29.82,North,0,0.0,1.6,73,0.00,,---,0.00,VWS V13.01,2013-05-09 00:29:00,
2013-05-09 03:34:00,63.9,55.1,29.83,NNE,22,0.0,1.6,73,0.00,,---,0.00,VWS V13.01,2013-05-09 00:34:00,
2013-05-09 03:39:00,63.9,55.1,29.83,NE,45,0.0,1.6,73,0.00,,---,0.00,VWS V13.01,2013-05-09 00:39:00,
2013-05-09 03:44:00,63.9,55.1,29.82,East,90,0.0,2.5,73,0.00,,---,0.00,VWS V13.01,2013-05-09 00:44:00,
2013-05-09 03:49:00,64.0,55.2,29.82,East,90,0.0,2.5,73,0.00,,---,0.00,VWS V13.01,2013-05-09 00:49:00,
2013-05-09 03:54:00,64.0,55.2,29.82,NE,45,0.0,2.5,73,0.00,,---,0.00,VWS V13.01,2013-05-09 00:54:00,
2013-05-09 03:59:00,64.0,55.2,29.82,North,0,3.4,3.4,73,0.00,,---,0.00,VWS V13.01,2013-05-09 00:59:00,
2013-05-09 04:04:00,64.0,55.2,29.82,NNE,22,0.0,1.3,73,0.00,,---,0.00,VWS V13.01,2013-05-09 01:04:00,
2013-05-09 04:09:00,64.0,55.2,29.82,North,0,2.2,4.7,73,0.00,,---,0.00,VWS V13.01,2013-05-09 01:09:00,
2013-05-09 04:14:00,64.0,54.8,29.81,NNW,337,1.1,2.9,72,0.00,,---,0.00,VWS V13.01,2013-05-09 01:14:00,
2013-05-09 04:19:00,63.9,54.7,29.81,NW,315,1.1,2.9,72,0.00,,---,0.00,VWS V13.01,2013-05-09 01:19:00,
2013-05-09 04:24:00,63.7,54.5,29.81,NNW,337,0.0,2.9,72,0.00,,---,0.00,VWS V13.01,2013-05-09 01:24:00,
2013-05-09 04:29:00,63.7,54.5,29.81,North,0,4.3,4.3,72,0.00,,---,0.00,VWS V13.01,2013-05-09 01:29:00,
2013-05-09 04:34:00,63.5,54.3,29.81,North,0,2.0,3.8,72,0.00,,---,0.00,VWS V13.01,2013-05-09 01:34:00,
2013-05-09 04:39:00,63.5,54.3,29.80,NW,315,3.4,3.4,72,0.00,,---,0.00,VWS V13.01,2013-05-09 01:39:00,
2013-05-09 04:44:00,63.3,54.1,29.80,North,0,1.1,4.0,72,0.00,,---,0.00,VWS V13.01,2013-05-09 01:44:00,
2013-05-09 04:49:00,63.3,54.1,29.80,NNE,22,0.0,2.2,72,0.00,,---,0.00,VWS V13.01,2013-05-09 01:49:00,
2013-05-09 04:55:00,63.1,53.9,29.80,NNW,337,0.9,1.8,72,0.00,,---,0.00,VWS V13.01,2013-05-09 01:55:00,
2013-05-09 05:00:00,63.1,53.9,29.80,North,0,2.2,2.2,72,0.00,,---,0.00,VWS V13.01,2013-05-09 02:00:00,
2013-05-09 05:05:00,63.1,53.9,29.80,North,0,2.0,2.5,72,0.00,,---,0.00,VWS V13.01,2013-05-09 02:05:00,
2013-05-09 05:10:00,63.1,53.9,29.80,North,0,0.0,3.1,72,0.00,,---,0.00,VWS V13.01,2013-05-09 02:10:00,
2013-05-09 05:15:00,63.1,54.3,29.80,ENE,67,0.0,2.9,73,0.00,,---,0.00,VWS V13.01,2013-05-09 02:15:00,
2013-05-09 05:20:00,63.0,54.2,29.80,ENE,67,0.0,2.9,73,0.00,,---,0.00,VWS V13.01,2013-05-09 02:20:00,
2013-05-09 05:25:00,63.0,54.2,29.80,ESE,112,0.0,2.9,73,0.00,,---,0.00,VWS V13.01,2013-05-09 02:25:00,
2013-05-09 05:30:00,62.8,54.0,29.80,NE,45,0.0,1.6,73,0.00,,---,0.00,VWS V13.01,2013-05-09 02:30:00,
2013-05-09 05:35:00,62.8,54.0,29.80,North,0,0.0,1.6,73,0.00,,---,0.00,VWS V13.01,2013-05-09 02:35:00,
2013-05-09 05:40:00,62.6,53.8,29.80,NNW,337,0.0,2.5,73,0.00,,---,0.00,VWS V13.01,2013-05-09 02:40:00,
2013-05-09 05:45:00,62.6,53.8,29.81,WNW,292,0.0,2.5,73,0.00,,---,0.00,VWS V13.01,2013-05-09 02:45:00,
2013-05-09 05:50:00,62.4,53.6,29.81,NW,315,0.0,2.5,73,0.00,,---,0.00,VWS V13.01,2013-05-09 02:50:00,
2013-05-09 05:55:00,62.4,53.6,29.80,West,270,0.0,2.5,73,0.00,,---,0.00,VWS V13.01,2013-05-09 02:55:00,
2013-05-09 06:00:00,62.4,53.6,29.80,NW,315,0.0,2.0,73,0.00,,---,0.00,VWS V13.01,2013-05-09 03:00:00,
2013-05-09 06:05:00,62.4,53.6,29.81,NW,315,0.0,1.3,73,0.00,,---,0.00,VWS V13.01,2013-05-09 03:05:00,
2013-05-09 06:10:00,62.4,54.0,29.81,ENE,67,0.0,2.0,74,0.00,,---,0.00,VWS V13.01,2013-05-09 03:10:00,
2013-05-09 06:15:00,62.2,53.8,29.80,NNE,22,0.0,2.0,74,0.00,,---,0.00,VWS V13.01,2013-05-09 03:15:00,
2013-05-09 06:20:00,62.2,53.8,29.81,ENE,67,0.0,2.0,74,0.00,,---,0.00,VWS V13.01,2013-05-09 03:20:00,
2013-05-09 06:25:00,62.1,53.7,29.81,East,90,0.0,2.0,74,0.00,,---,0.00,VWS V13.01,2013-05-09 03:25:00,
2013-05-09 06:30:00,61.9,53.5,29.81,NW,315,0.0,1.1,74,0.00,,---,0.00,VWS V13.01,2013-05-09 03:30:00,
2013-05-09 06:35:00,61.9,53.5,29.80,ENE,67,0.0,1.1,74,0.00,,---,0.00,VWS V13.01,2013-05-09 03:35:00,
2013-05-09 06:40:00,61.7,53.3,29.81,ENE,67,0.0,1.1,74,0.00,,---,0.00,VWS V13.01,2013-05-09 03:40:00,
2013-05-09 06:46:00,61.7,53.3,29.80,NW,315,0.0,1.1,74,0.00,,---,0.00,VWS V13.01,2013-05-09 03:46:00,
2013-05-09 06:50:00,61.5,53.2,29.81,NNE,22,0.0,2.2,74,0.00,,---,0.00,VWS V13.01,2013-05-09 03:50:00,
2013-05-09 06:56:00,61.5,53.2,29.80,North,0,1.8,2.0,74,0.00,,---,0.00,VWS V13.01,2013-05-09 03:56:00,
2013-05-09 07:01:00,61.5,53.2,29.81,NE,45,0.0,0.7,74,0.00,,---,0.00,VWS V13.01,2013-05-09 04:01:00,
2013-05-09 07:06:00,61.5,53.2,29.81,WNW,292,0.0,1.3,74,0.00,,---,0.00,VWS V13.01,2013-05-09 04:06:00,
2013-05-09 07:11:00,61.5,53.2,29.81,North,0,0.0,1.3,74,0.00,,---,0.00,VWS V13.01,2013-05-09 04:11:00,
2013-05-09 07:16:00,61.5,53.2,29.81,NNW,337,0.0,1.3,74,0.00,,---,0.00,VWS V13.01,2013-05-09 04:16:00,
2013-05-09 07:21:00,61.5,53.2,29.81,North,0,0.0,1.3,74,0.00,,---,0.00,VWS V13.01,2013-05-09 04:21:00,
2013-05-09 07:26:00,61.5,53.5,29.81,NNW,337,0.0,1.3,75,0.00,,---,0.00,VWS V13.01,2013-05-09 04:26:00,
2013-05-09 07:31:00,61.5,53.5,29.81,NNW,337,0.0,1.3,75,0.00,,---,0.00,VWS V13.01,2013-05-09 04:31:00,
2013-05-09 07:36:00,61.7,53.7,29.81,NE,45,0.0,1.3,75,0.00,,---,0.00,VWS V13.01,2013-05-09 04:36:00,
2013-05-09 07:41:00,61.9,53.9,29.82,North,0,0.0,1.6,75,0.00,,---,0.00,VWS V13.01,2013-05-09 04:41:00,
2013-05-09 07:46:00,62.2,54.2,29.81,NNW,337,0.0,2.7,75,0.00,,---,0.00,VWS V13.01,2013-05-09 04:46:00,
2013-05-09 07:52:00,62.4,54.4,29.81,NNW,337,1.1,1.1,75,0.00,,---,0.00,VWS V13.01,2013-05-09 04:52:00,
2013-05-09 07:57:00,62.8,54.8,29.82,WNW,292,0.0,2.2,75,0.00,,---,0.00,VWS V13.01,2013-05-09 04:57:00,
2013-05-09 08:02:00,63.1,55.1,29.82,NNW,337,0.0,2.0,75,0.00,,---,0.00,VWS V13.01,2013-05-09 05:02:00,
2013-05-09 08:07:00,63.5,55.1,29.82,North,0,0.0,1.6,74,0.00,,---,0.00,VWS V13.01,2013-05-09 05:07:00,
2013-05-09 08:12:00,64.0,55.6,29.82,North,0,0.0,1.3,74,0.00,,---,0.00,VWS V13.01,2013-05-09 05:12:00,
2013-05-09 08:17:00,64.2,55.4,29.82,East,90,0.0,2.2,73,0.00,,---,0.00,VWS V13.01,2013-05-09 05:17:00,
2013-05-09 08:22:00,64.8,56.0,29.82,North,0,3.8,3.8,73,0.00,,---,0.00,VWS V13.01,2013-05-09 05:22:00,
2013-05-09 08:27:00,65.1,55.9,29.83,ENE,67,0.0,1.8,72,0.00,,---,0.00,VWS V13.01,2013-05-09 05:27:00,
2013-05-09 08:32:00,65.5,55.9,29.82,NNE,22,0.0,2.0,71,0.00,,---,0.00,VWS V13.01,2013-05-09 05:32:00,
2013-05-09 08:37:00,65.8,56.2,29.82,NNW,337,1.3,1.3,71,0.00,,---,0.00,VWS V13.01,2013-05-09 05:37:00,
2013-05-09 08:42:00,66.2,56.1,29.82,North,0,4.7,4.7,70,0.00,,---,0.00,VWS V13.01,2013-05-09 05:42:00,
2013-05-09 08:47:00,66.6,56.1,29.82,NNW,337,3.6,3.6,69,0.00,,---,0.00,VWS V13.01,2013-05-09 05:47:00,
2013-05-09 08:52:00,66.9,56.0,29.82,North,0,4.9,4.9,68,0.00,,---,0.00,VWS V13.01,2013-05-09 05:52:00,
2013-05-09 08:57:00,67.3,56.4,29.82,NNE,22,2.2,3.8,68,0.00,,---,0.00,VWS V13.01,2013-05-09 05:57:00,
2013-05-09 09:02:00,67.6,56.3,29.82,NW,315,5.1,5.1,67,0.00,,---,0.00,VWS V13.01,2013-05-09 06:02:00,
2013-05-09 09:07:00,67.8,56.0,29.83,NNE,22,2.0,2.0,66,0.00,,---,0.00,VWS V13.01,2013-05-09 06:07:00,
2013-05-09 09:12:00,68.2,56.4,29.83,North,0,0.0,2.9,66,0.00,,---,0.00,VWS V13.01,2013-05-09 06:12:00,
2013-05-09 09:17:00,68.5,56.3,29.83,NW,315,1.6,9.6,65,0.00,,---,0.00,VWS V13.01,2013-05-09 06:17:00,
2013-05-09 09:22:00,68.7,56.5,29.83,NNE,22,10.3,10.3,65,0.00,,---,0.00,VWS V13.01,2013-05-09 06:22:00,
2013-05-09 09:27:00,68.9,56.7,29.83,ENE,67,4.9,7.8,65,0.00,,---,0.00,VWS V13.01,2013-05-09 06:27:00,
2013-05-09 09:32:00,69.1,56.8,29.83,NE,45,0.0,1.1,65,0.00,,---,0.00,VWS V13.01,2013-05-09 06:32:00,
2013-05-09 09:37:00,69.1,56.8,29.83,NE,45,4.5,10.7,65,0.00,,---,0.00,VWS V13.01,2013-05-09 06:37:00,
2013-05-09 09:42:00,69.4,56.7,29.83,East,90,9.6,9.6,64,0.00,,---,0.00,VWS V13.01,2013-05-09 06:42:00,
2013-05-09 09:47:00,69.6,56.5,29.83,NE,45,0.0,12.3,63,0.00,,---,0.00,VWS V13.01,2013-05-09 06:47:00,
2013-05-09 09:52:00,69.6,56.5,29.83,North,0,0.0,4.5,63,0.00,,---,0.00,VWS V13.01,2013-05-09 06:52:00,
2013-05-09 09:57:00,69.6,56.5,29.83,NE,45,2.7,3.8,63,0.00,,---,0.00,VWS V13.01,2013-05-09 06:57:00,
2013-05-09 10:02:00,70.3,55.3,29.83,NNW,337,6.3,10.3,59,0.00,,---,0.00,VWS V13.01,2013-05-09 07:02:00,
2013-05-09 10:07:00,70.3,55.8,29.83,SE,135,0.0,7.4,60,0.00,,---,0.00,VWS V13.01,2013-05-09 07:07:00,
2013-05-09 10:12:00,70.2,55.7,29.83,North,0,5.1,6.0,60,0.00,,---,0.00,VWS V13.01,2013-05-09 07:12:00,
2013-05-09 10:17:00,69.6,55.1,29.83,NNW,337,2.5,5.1,60,0.00,,---,0.00,VWS V13.01,2013-05-09 07:17:00,
2013-05-09 10:22:00,70.0,55.5,29.83,ENE,67,2.2,4.7,60,0.00,,---,0.00,VWS V13.01,2013-05-09 07:22:00,
2013-05-09 10:27:00,70.7,55.7,29.83,North,0,2.2,9.2,59,0.00,,---,0.00,VWS V13.01,2013-05-09 07:27:00,
2013-05-09 10:32:00,71.2,55.7,29.83,North,0,6.3,9.8,58,0.00,,---,0.00,VWS V13.01,2013-05-09 07:32:00,
2013-05-09 10:37:00,71.4,55.4,29.83,NNE,22,10.7,10.7,57,0.00,,---,0.00,VWS V13.01,2013-05-09 07:37:00,
2013-05-09 10:42:00,71.2,55.7,29.84,ENE,67,7.4,11.6,58,0.00,,---,0.00,VWS V13.01,2013-05-09 07:42:00,
2013-05-09 10:47:00,71.1,55.1,29.84,ENE,67,4.9,10.1,57,0.00,,---,0.00,VWS V13.01,2013-05-09 07:47:00,
2013-05-09 10:52:00,70.9,55.9,29.84,NNW,337,0.0,4.5,59,0.00,,---,0.00,VWS V13.01,2013-05-09 07:52:00,
2013-05-09 10:57:00,71.2,55.7,29.84,NW,315,0.0,8.9,58,0.00,,---,0.00,VWS V13.01,2013-05-09 07:57:00,
2013-05-09 11:02:00,71.4,55.4,29.84,East,90,6.9,6.9,57,0.00,,---,0.00,VWS V13.01,2013-05-09 08:02:00,
2013-05-09 11:07:00,71.4,55.9,29.84,ENE,67,0.0,5.6,58,0.00,,---,0.00,VWS V13.01,2013-05-09 08:07:00,
2013-05-09 11:13:00,71.4,55.9,29.84,NE,45,3.6,7.2,58,0.00,,---,0.00,VWS V13.01,2013-05-09 08:13:00,
2013-05-09 11:18:00,71.4,54.9,29.84,North,0,3.4,10.5,56,0.00,,---,0.00,VWS V13.01,2013-05-09 08:18:00,
2013-05-09 11:23:00,71.4,55.4,29.84,NE,45,4.5,11.2,57,0.00,,---,0.00,VWS V13.01,2013-05-09 08:23:00,
2013-05-09 11:28:00,71.4,54.9,29.84,North,0,9.4,9.4,56,0.00,,---,0.00,VWS V13.01,2013-05-09 08:28:00,
2013-05-09 11:33:00,71.1,55.1,29.84,NNE,22,5.1,12.3,57,0.00,,---,0.00,VWS V13.01,2013-05-09 08:33:00,
2013-05-09 11:38:00,70.9,55.4,29.84,NW,315,7.4,7.4,58,0.00,,---,0.00,VWS V13.01,2013-05-09 08:38:00,
2013-05-09 11:43:00,71.4,55.4,29.85,NNE,22,6.3,6.3,57,0.00,,---,0.00,VWS V13.01,2013-05-09 08:43:00,
2013-05-09 11:48:00,72.1,55.6,29.84,East,90,6.3,6.3,56,0.00,,---,0.00,VWS V13.01,2013-05-09 08:48:00,
2013-05-09 11:53:00,72.3,55.2,29.84,North,0,6.0,8.1,55,0.00,,---,0.00,VWS V13.01,2013-05-09 08:53:00,
2013-05-09 11:58:00,72.3,55.7,29.84,NNE,22,3.8,3.8,56,0.00,,---,0.00,VWS V13.01,2013-05-09 08:58:00,
2013-05-09 12:03:00,72.3,55.2,29.84,NNE,22,0.0,7.6,55,0.00,,---,0.00,VWS V13.01,2013-05-09 09:03:00,
2013-05-09 12:08:00,73.2,56.1,29.84,NNW,337,6.3,6.3,55,0.00,,---,0.00,VWS V13.01,2013-05-09 09:08:00,
2013-05-09 12:13:00,73.2,55.6,29.84,North,0,8.9,10.7,54,0.00,,---,0.00,VWS V13.01,2013-05-09 09:13:00,
2013-05-09 12:18:00,73.0,55.9,29.84,ENE,67,0.0,4.9,55,0.00,,---,0.00,VWS V13.01,2013-05-09 09:18:00,
2013-05-09 12:23:00,73.0,55.4,29.84,North,0,4.5,7.4,54,0.00,,---,0.00,VWS V13.01,2013-05-09 09:23:00,
2013-05-09 12:28:00,73.2,55.6,29.84,North,0,2.2,2.2,54,0.00,,---,0.00,VWS V13.01,2013-05-09 09:28:00,
2013-05-09 12:33:00,73.6,56.0,29.85,North,0,4.7,7.4,54,0.00,,---,0.00,VWS V13.01,2013-05-09 09:33:00,
2013-05-09 12:38:00,73.6,56.0,29.84,ENE,67,0.0,1.8,54,0.00,,---,0.00,VWS V13.01,2013-05-09 09:38:00,
2013-05-09 12:43:00,74.5,56.3,29.84,NNW,337,9.6,9.6,53,0.00,,---,0.00,VWS V13.01,2013-05-09 09:43:00,
2013-05-09 12:48:00,74.3,56.6,29.84,ENE,67,9.6,9.8,54,0.00,,---,0.00,VWS V13.01,2013-05-09 09:48:00,
2013-05-09 12:53:00,74.1,56.4,29.83,NNE,22,8.5,9.6,54,0.00,,---,0.00,VWS V13.01,2013-05-09 09:53:00,
2013-05-09 12:58:00,74.8,57.1,29.83,ENE,67,5.4,7.4,54,0.00,,---,0.00,VWS V13.01,2013-05-09 09:58:00,
2013-05-09 13:03:00,74.8,56.5,29.83,SE,135,4.7,11.9,53,0.00,,---,0.00,VWS V13.01,2013-05-09 10:03:00,
2013-05-09 13:08:00,75.4,56.6,29.83,NW,315,4.5,5.6,52,0.00,,---,0.00,VWS V13.01,2013-05-09 10:08:00,
2013-05-09 13:13:00,75.4,56.6,29.84,East,90,10.7,12.8,52,0.00,,---,0.00,VWS V13.01,2013-05-09 10:13:00,
2013-05-09 13:19:00,74.8,57.1,29.83,NNE,22,8.5,16.3,54,0.00,,---,0.00,VWS V13.01,2013-05-09 10:19:00,
2013-05-09 13:24:00,74.3,57.6,29.83,NNE,22,6.0,10.5,56,0.00,,---,0.00,VWS V13.01,2013-05-09 10:24:00,
2013-05-09 13:29:00,74.3,58.1,29.83,NNE,22,8.7,9.2,57,0.00,,---,0.00,VWS V13.01,2013-05-09 10:29:00,
2013-05-09 13:34:00,73.6,57.0,29.83,NNE,22,15.0,15.0,56,0.00,,---,0.00,VWS V13.01,2013-05-09 10:34:00,
2013-05-09 13:39:00,73.0,56.9,29.83,NW,315,7.6,12.3,57,0.00,,---,0.00,VWS V13.01,2013-05-09 10:39:00,
2013-05-09 13:44:00,72.3,56.7,29.83,NNE,22,11.2,11.2,58,0.00,,---,0.00,VWS V13.01,2013-05-09 10:44:00,
2013-05-09 13:49:00,71.8,57.2,29.83,NNW,337,4.7,16.8,60,0.00,,---,0.00,VWS V13.01,2013-05-09 10:49:00,
2013-05-09 13:54:00,71.8,57.6,29.83,North,0,4.7,7.4,61,0.00,,---,0.00,VWS V13.01,2013-05-09 10:54:00,
2013-05-09 13:59:00,71.1,57.4,29.83,North,0,6.7,12.8,62,0.00,,---,0.00,VWS V13.01,2013-05-09 10:59:00,
2013-05-09 14:04:00,70.9,57.7,29.83,North,0,18.1,18.1,63,0.00,,---,0.00,VWS V13.01,2013-05-09 11:04:00,
2013-05-09 14:09:00,70.5,57.3,29.83,ENE,67,3.8,19.0,63,0.00,,---,0.00,VWS V13.01,2013-05-09 11:09:00,
2013-05-09 14:14:00,70.9,57.7,29.83,North,0,6.3,6.9,63,0.00,,---,0.00,VWS V13.01,2013-05-09 11:14:00,
2013-05-09 14:19:00,71.2,58.0,29.83,North,0,14.5,15.9,63,0.00,,---,0.00,VWS V13.01,2013-05-09 11:19:00,
2013-05-09 14:24:00,70.9,57.7,29.83,North,0,8.1,9.2,63,0.00,,---,0.00,VWS V13.01,2013-05-09 11:24:00,
2013-05-09 14:29:00,71.4,57.7,29.83,North,0,15.7,15.7,62,0.00,,---,0.00,VWS V13.01,2013-05-09 11:29:00,
2013-05-09 14:34:00,71.6,57.5,29.83,North,0,8.9,13.6,61,0.00,,---,0.00,VWS V13.01,2013-05-09 11:34:00,
2013-05-09 14:39:00,71.2,57.1,29.83,NNW,337,9.2,19.7,61,0.00,,---,0.00,VWS V13.01,2013-05-09 11:39:00,
2013-05-09 14:44:00,71.2,57.1,29.83,North,0,14.3,22.4,61,0.00,,---,0.00,VWS V13.01,2013-05-09 11:44:00,
2013-05-09 14:49:00,71.8,57.6,29.83,North,0,8.5,16.8,61,0.00,,---,0.00,VWS V13.01,2013-05-09 11:49:00,
2013-05-09 14:54:00,71.4,57.3,29.83,NNE,22,16.8,16.8,61,0.00,,---,0.00,VWS V13.01,2013-05-09 11:54:00,
2013-05-09 14:59:00,70.9,57.2,29.84,NNW,337,5.8,18.3,62,0.00,,---,0.00,VWS V13.01,2013-05-09 11:59:00,
2013-05-09 15:04:00,70.7,57.1,29.84,ESE,112,6.3,10.5,62,0.00,,---,0.00,VWS V13.01,2013-05-09 12:04:00,
2013-05-09 15:09:00,70.9,57.2,29.84,NE,45,7.6,17.0,62,0.00,,---,0.00,VWS V13.01,2013-05-09 12:09:00,
2013-05-09 15:14:00,71.2,57.1,29.83,NNE,22,16.1,16.1,61,0.00,,---,0.00,VWS V13.01,2013-05-09 12:14:00,
2013-05-09 15:19:00,71.2,56.6,29.83,NNW,337,11.2,17.0,60,0.00,,---,0.00,VWS V13.01,2013-05-09 12:19:00,
2013-05-09 15:24:00,71.2,57.1,29.83,NW,315,5.6,12.3,61,0.00,,---,0.00,VWS V13.01,2013-05-09 12:24:00,
2013-05-09 15:29:00,70.7,56.2,29.83,North,0,12.5,23.7,60,0.00,,---,0.00,VWS V13.01,2013-05-09 12:29:00,
2013-05-09 15:34:00,70.5,56.4,29.83,NNW,337,5.1,8.3,61,0.00,,---,0.00,VWS V13.01,2013-05-09 12:34:00,
2013-05-09 15:39:00,71.4,56.8,29.83,WNW,292,11.0,12.3,60,0.00,,---,0.00,VWS V13.01,2013-05-09 12:39:00,
2013-05-09 15:44:00,71.2,56.6,29.83,ENE,67,6.9,14.3,60,0.00,,---,0.00,VWS V13.01,2013-05-09 12:44:00,
2013-05-09 15:49:00,71.4,56.3,29.83,North,0,18.1,18.1,59,0.00,,---,0.00,VWS V13.01,2013-05-09 12:49:00,
2013-05-09 15:54:00,71.2,55.7,29.83,SSE,157,5.1,11.9,58,0.00,,---,0.00,VWS V13.01,2013-05-09 12:54:00,
2013-05-09 15:59:00,71.4,55.9,29.83,East,90,8.3,12.8,58,0.00,,---,0.00,VWS V13.01,2013-05-09 12:59:00,
2013-05-09 16:04:00,71.1,56.1,29.82,ENE,67,3.8,6.0,59,0.00,,---,0.00,VWS V13.01,2013-05-09 13:04:00,
2013-05-09 16:09:00,71.2,55.7,29.82,NNW,337,12.3,16.6,58,0.00,,---,0.00,VWS V13.01,2013-05-09 13:09:00,
2013-05-09 16:14:00,70.7,55.7,29.82,NNE,22,6.5,12.5,59,0.00,,---,0.00,VWS V13.01,2013-05-09 13:14:00,
2013-05-09 16:19:00,70.7,55.7,29.82,North,0,4.0,6.5,59,0.00,,---,0.00,VWS V13.01,2013-05-09 13:19:00,
2013-05-09 16:24:00,70.9,55.4,29.82,North,0,10.5,10.5,58,0.00,,---,0.00,VWS V13.01,2013-05-09 13:24:00,
2013-05-09 16:29:00,70.2,54.8,29.82,North,0,8.3,19.5,58,0.00,,---,0.00,VWS V13.01,2013-05-09 13:29:00,
2013-05-09 16:34:00,69.6,54.2,29.82,North,0,19.2,19.2,58,0.00,,---,0.00,VWS V13.01,2013-05-09 13:34:00,
2013-05-09 16:39:00,70.0,54.6,29.82,WNW,292,2.0,15.2,58,0.00,,---,0.00,VWS V13.01,2013-05-09 13:39:00,
2013-05-09 16:44:00,70.5,55.0,29.83,WNW,292,3.1,18.3,58,0.00,,---,0.00,VWS V13.01,2013-05-09 13:44:00,
2013-05-09 16:49:00,70.0,54.1,29.83,NNW,337,4.7,13.9,57,0.00,,---,0.00,VWS V13.01,2013-05-09 13:49:00,
2013-05-09 16:54:00,69.4,54.0,29.83,East,90,4.5,15.2,58,0.00,,---,0.00,VWS V13.01,2013-05-09 13:54:00,
2013-05-09 16:59:00,69.6,54.2,29.83,North,0,19.5,19.5,58,0.00,,---,0.00,VWS V13.01,2013-05-09 13:59:00,
2013-05-09 17:04:00,69.4,54.5,29.83,NNE,22,1.8,7.6,59,0.00,,---,0.00,VWS V13.01,2013-05-09 14:04:00,
2013-05-09 17:09:00,69.4,54.5,29.83,ENE,67,9.6,13.0,59,0.00,,---,0.00,VWS V13.01,2013-05-09 14:09:00,
2013-05-09 17:14:00,69.1,54.7,29.83,North,0,8.3,9.4,60,0.00,,---,0.00,VWS V13.01,2013-05-09 14:14:00,
2013-05-09 17:19:00,68.7,54.7,29.83,North,0,10.5,13.0,61,0.00,,---,0.00,VWS V13.01,2013-05-09 14:19:00,
2013-05-09 17:24:00,68.7,54.7,29.83,NNE,22,5.8,8.9,61,0.00,,---,0.00,VWS V13.01,2013-05-09 14:24:00,
2013-05-09 17:29:00,68.7,54.7,29.83,NNE,22,10.3,21.5,61,0.00,,---,0.00,VWS V13.01,2013-05-09 14:29:00,
2013-05-09 17:34:00,68.7,54.3,29.83,North,0,11.4,15.7,60,0.00,,---,0.00,VWS V13.01,2013-05-09 14:34:00,
2013-05-09 17:39:00,68.7,54.7,29.82,NE,45,4.7,5.8,61,0.00,,---,0.00,VWS V13.01,2013-05-09 14:39:00,
2013-05-09 17:44:00,69.1,55.1,29.83,NW,315,7.6,16.6,61,0.00,,---,0.00,VWS V13.01,2013-05-09 14:44:00,
2013-05-09 17:49:00,68.2,54.2,29.83,North,0,10.3,10.3,61,0.00,,---,0.00,VWS V13.01,2013-05-09 14:49:00,
2013-05-09 17:54:00,67.8,54.3,29.83,WSW,247,3.6,7.6,62,0.00,,---,0.00,VWS V13.01,2013-05-09 14:54:00,
2013-05-09 18:00:00,67.8,54.3,29.83,NE,45,3.8,15.2,62,0.00,,---,0.00,VWS V13.01,2013-05-09 15:00:00,
2013-05-09 18:05:00,67.6,54.6,29.83,East,90,4.0,4.9,63,0.00,,---,0.00,VWS V13.01,2013-05-09 15:05:00,
2013-05-09 18:10:00,66.9,54.3,29.83,East,90,6.9,9.2,64,0.00,,---,0.00,VWS V13.01,2013-05-09 15:10:00,
2013-05-09 18:15:00,66.7,54.6,29.83,ENE,67,13.4,13.4,65,0.00,,---,0.00,VWS V13.01,2013-05-09 15:15:00,
2013-05-09 18:20:00,66.4,54.3,29.83,East,90,11.2,11.2,65,0.00,,---,0.00,VWS V13.01,2013-05-09 15:20:00,
2013-05-09 18:25:00,66.4,54.7,29.83,NE,45,1.3,10.1,66,0.00,,---,0.00,VWS V13.01,2013-05-09 15:25:00,
2013-05-09 18:30:00,66.4,54.3,29.83,NW,315,1.8,3.1,65,0.00,,---,0.00,VWS V13.01,2013-05-09 15:30:00,
2013-05-09 18:35:00,66.4,54.3,29.83,North,0,0.0,11.2,65,0.00,,---,0.00,VWS V13.01,2013-05-09 15:35:00,
2013-05-09 18:40:00,66.2,54.1,29.83,ENE,67,5.1,5.1,65,0.00,,---,0.00,VWS V13.01,2013-05-09 15:40:00,
2013-05-09 18:45:00,66.2,54.1,29.84,North,0,7.2,11.2,65,0.00,,---,0.00,VWS V13.01,2013-05-09 15:45:00,
2013-05-09 18:50:00,66.0,53.9,29.83,East,90,9.6,9.6,65,0.00,,---,0.00,VWS V13.01,2013-05-09 15:50:00,
2013-05-09 18:55:00,65.8,53.7,29.84,NNE,22,3.8,9.2,65,0.00,,---,0.00,VWS V13.01,2013-05-09 15:55:00,
2013-05-09 19:00:00,65.8,53.7,29.84,NNE,22,3.1,7.6,65,0.00,,---,0.00,VWS V13.01,2013-05-09 16:00:00,
2013-05-09 19:11:00,66.0,53.9,29.84,ESE,112,3.6,3.6,65,0.00,,---,0.00,VWS V13.01,2013-05-09 16:11:00,
2013-05-09 19:16:00,65.8,53.7,29.84,NE,45,2.2,9.4,65,0.00,,---,0.00,VWS V13.01,2013-05-09 16:16:00,
2013-05-09 19:21:00,65.8,53.7,29.84,ENE,67,7.6,7.6,65,0.00,,---,0.00,VWS V13.01,2013-05-09 16:21:00,
2013-05-09 19:26:00,65.7,53.6,29.84,ENE,67,7.6,7.6,65,0.00,,---,0.00,VWS V13.01,2013-05-09 16:26:00,
2013-05-09 19:31:00,65.5,53.4,29.84,ENE,67,0.0,11.9,65,0.00,,---,0.00,VWS V13.01,2013-05-09 16:31:00,
2013-05-09 19:36:00,65.3,53.7,29.84,ENE,67,4.0,6.3,66,0.00,,---,0.00,VWS V13.01,2013-05-09 16:36:00,
2013-05-09 19:41:00,65.1,53.5,29.85,NNW,337,2.2,6.5,66,0.00,,---,0.00,VWS V13.01,2013-05-09 16:41:00,
2013-05-09 19:46:00,65.1,53.5,29.85,ENE,67,0.0,3.6,66,0.00,,---,0.00,VWS V13.01,2013-05-09 16:46:00,
2013-05-09 19:51:00,65.1,53.5,29.85,West,270,1.1,9.8,66,0.00,,---,0.00,VWS V13.01,2013-05-09 16:51:00,
2013-05-09 19:56:00,64.9,53.7,29.85,NE,45,8.1,8.1,67,0.00,,---,0.00,VWS V13.01,2013-05-09 16:56:00,
2013-05-09 20:01:00,64.8,53.6,29.85,North,0,9.8,10.5,67,0.00,,---,0.00,VWS V13.01,2013-05-09 17:01:00,
2013-05-09 20:06:00,64.8,53.6,29.85,ENE,67,5.6,5.8,67,0.00,,---,0.00,VWS V13.01,2013-05-09 17:06:00,
2013-05-09 20:11:00,64.6,53.8,29.85,NNW,337,4.0,10.5,68,0.00,,---,0.00,VWS V13.01,2013-05-09 17:11:00,
2013-05-09 20:16:00,64.6,53.8,29.85,NNW,337,5.1,5.1,68,0.00,,---,0.00,VWS V13.01,2013-05-09 17:16:00,
2013-05-09 20:21:00,64.6,53.8,29.85,NNW,337,5.4,6.7,68,0.00,,---,0.00,VWS V13.01,2013-05-09 17:21:00,
2013-05-09 20:26:00,64.6,53.8,29.86,NNE,22,0.0,9.2,68,0.00,,---,0.00,VWS V13.01,2013-05-09 17:26:00,
2013-05-09 20:32:00,64.2,53.4,29.86,NE,45,0.0,9.6,68,0.00,,---,0.00,VWS V13.01,2013-05-09 17:32:00,
2013-05-09 20:37:00,64.2,53.4,29.86,ENE,67,3.8,3.8,68,0.00,,---,0.00,VWS V13.01,2013-05-09 17:37:00,
2013-05-09 20:42:00,64.2,53.4,29.86,ENE,67,0.0,10.5,68,0.00,,---,0.00,VWS V13.01,2013-05-09 17:42:00,
2013-05-09 20:47:00,64.2,53.4,29.86,NE,45,3.1,8.1,68,0.00,,---,0.00,VWS V13.01,2013-05-09 17:47:00,
2013-05-09 20:52:00,64.0,53.2,29.87,ESE,112,4.5,4.5,68,0.00,,---,0.00,VWS V13.01,2013-05-09 17:52:00,
2013-05-09 20:57:00,64.0,53.2,29.87,North,0,11.4,11.4,68,0.00,,---,0.00,VWS V13.01,2013-05-09 17:57:00,
2013-05-09 21:02:00,64.0,53.2,29.87,SSE,157,1.6,1.6,68,0.00,,---,0.00,VWS V13.01,2013-05-09 18:02:00,
2013-05-09 21:07:00,64.0,53.6,29.87,ENE,67,1.6,9.8,69,0.00,,---,0.00,VWS V13.01,2013-05-09 18:07:00,
2013-05-09 21:12:00,64.0,53.6,29.87,NNW,337,0.9,0.9,69,0.00,,---,0.00,VWS V13.01,2013-05-09 18:12:00,
2013-05-09 21:17:00,63.9,53.5,29.87,NNW,337,1.6,3.4,69,0.00,,---,0.00,VWS V13.01,2013-05-09 18:17:00,
2013-05-09 21:22:00,63.9,53.5,29.87,NNW,337,4.5,4.5,69,0.00,,---,0.00,VWS V13.01,2013-05-09 18:22:00,
2013-05-09 21:27:00,63.7,53.3,29.87,NNE,22,3.1,7.6,69,0.00,,---,0.00,VWS V13.01,2013-05-09 18:27:00,
2013-05-09 21:32:00,63.7,53.3,29.87,ENE,67,5.4,5.4,69,0.00,,---,0.00,VWS V13.01,2013-05-09 18:32:00,
2013-05-09 21:37:00,63.7,53.3,29.87,ENE,67,1.3,3.8,69,0.00,,---,0.00,VWS V13.01,2013-05-09 18:37:00,
2013-05-09 21:42:00,63.7,53.3,29.87,NE,45,0.0,9.6,69,0.00,,---,0.00,VWS V13.01,2013-05-09 18:42:00,
2013-05-09 21:47:00,63.7,53.3,29.87,East,90,3.8,3.8,69,0.00,,---,0.00,VWS V13.01,2013-05-09 18:47:00,
2013-05-09 21:52:00,63.7,53.3,29.87,SE,135,0.0,11.2,69,0.00,,---,0.00,VWS V13.01,2013-05-09 18:52:00,
2013-05-09 21:57:00,63.7,53.3,29.87,East,90,2.9,6.0,69,0.00,,---,0.00,VWS V13.01,2013-05-09 18:57:00,
2013-05-09 22:02:00,63.5,53.2,29.88,NNW,337,2.0,2.0,69,0.00,,---,0.00,VWS V13.01,2013-05-09 19:02:00,
2013-05-09 22:07:00,63.7,53.3,29.87,NNW,337,8.5,8.5,69,0.00,,---,0.00,VWS V13.01,2013-05-09 19:07:00,
2013-05-09 22:12:00,63.7,53.3,29.87,North,0,6.3,6.3,69,0.00,,---,0.00,VWS V13.01,2013-05-09 19:12:00,
2013-05-09 22:17:00,63.5,53.2,29.87,NNE,22,1.1,2.5,69,0.00,,---,0.00,VWS V13.01,2013-05-09 19:17:00,
2013-05-09 22:22:00,63.7,53.3,29.87,ENE,67,4.0,6.5,69,0.00,,---,0.00,VWS V13.01,2013-05-09 19:22:00,
2013-05-09 22:27:00,63.7,53.3,29.87,North,0,0.0,4.7,69,0.00,,---,0.00,VWS V13.01,2013-05-09 19:27:00,
2013-05-09 22:32:00,63.5,53.2,29.87,SSW,202,0.0,4.7,69,0.00,,---,0.00,VWS V13.01,2013-05-09 19:32:00,
2013-05-09 22:37:00,63.7,53.3,29.87,North,0,0.0,2.9,69,0.00,,---,0.00,VWS V13.01,2013-05-09 19:37:00,
2013-05-09 22:42:00,63.7,53.3,29.87,NNE,22,0.0,4.7,69,0.00,,---,0.00,VWS V13.01,2013-05-09 19:42:00,
2013-05-09 22:47:00,63.7,53.3,29.87,East,90,1.6,1.6,69,0.00,,---,0.00,VWS V13.01,2013-05-09 19:47:00,
2013-05-09 22:52:00,63.7,53.3,29.87,NNW,337,0.0,1.1,69,0.00,,---,0.00,VWS V13.01,2013-05-09 19:52:00,
2013-05-09 22:57:00,63.7,53.3,29.87,North,0,0.0,1.1,69,0.00,,---,0.00,VWS V13.01,2013-05-09 19:57:00,
2013-05-09 23:02:00,63.7,53.3,29.86,ENE,67,1.3,2.0,69,0.00,,---,0.00,VWS V13.01,2013-05-09 20:02:00,
2013-05-09 23:07:00,63.7,53.3,29.86,NNE,22,0.0,2.7,69,0.00,,---,0.00,VWS V13.01,2013-05-09 20:07:00,
2013-05-09 23:12:00,63.7,53.3,29.86,NNW,337,0.0,1.6,69,0.00,,---,0.00,VWS V13.01,2013-05-09 20:12:00,
2013-05-09 23:17:00,63.9,53.5,29.86,NNE,22,0.0,1.8,69,0.00,,---,0.00,VWS V13.01,2013-05-09 20:17:00,
2013-05-09 23:22:00,64.0,53.6,29.86,NE,45,0.0,1.3,69,0.00,,---,0.00,VWS V13.01,2013-05-09 20:22:00,
2013-05-09 23:28:00,64.0,53.6,29.86,East,90,0.0,3.6,69,0.00,,---,0.00,VWS V13.01,2013-05-09 20:28:00,
2013-05-09 23:33:00,64.0,53.6,29.86,NE,45,5.8,6.3,69,0.00,,---,0.00,VWS V13.01,2013-05-09 20:33:00,
2013-05-09 23:38:00,64.2,53.8,29.85,NNW,337,0.0,6.0,69,0.00,,---,0.00,VWS V13.01,2013-05-09 20:38:00,
2013-05-09 23:43:00,64.2,53.4,29.85,North,0,4.0,8.1,68,0.00,,---,0.00,VWS V13.01,2013-05-09 20:43:00,
2013-05-09 23:48:00,64.2,53.4,29.85,SSW,202,0.0,1.6,68,0.00,,---,0.00,VWS V13.01,2013-05-09 20:48:00,
2013-05-09 23:53:00,64.2,53.4,29.84,South,180,0.0,1.6,68,0.00,,---,0.00,VWS V13.01,2013-05-09 20:53:00,
2013-05-09 23:58:00,64.2,53.4,29.85,SE,135,0.0,2.5,68,0.00,,---,0.00,VWS V13.01,2013-05-09 20:58:00,